createdAt,value
2023-05-10T00:00:37.227Z,65.43
2023-05-10T00:03:03.551Z,65.80
2023-05-10T00:05:29.897Z,65.74
2023-05-10T00:07:56.217Z,66.10
2023-05-10T00:10:22.546Z,65.99
2023-05-10T00:12:48.948Z,66.20
2023-05-10T00:15:15.308Z,66.08
2023-05-10T00:17:41.661Z,65.92
2023-05-10T00:20:08.027Z,65.99
2023-05-10T00:22:34.335Z,65.55
2023-05-10T00:25:00.636Z,65.14
2023-05-10T00:27:26.939Z,65.29
2023-05-10T00:29:53.244Z,65.41
2023-05-10T00:32:19.578Z,65.86
2023-05-10T00:34:45.924Z,66.14
2023-05-10T00:37:12.234Z,66.46
2023-05-10T00:39:38.580Z,66.77
2023-05-10T00:42:04.914Z,67.16
2023-05-10T00:44:31.238Z,66.77
2023-05-10T00:46:57.568Z,66.47
2023-05-10T00:49:23.907Z,66.86
2023-05-10T00:51:50.210Z,66.91
2023-05-10T00:54:16.533Z,67.05
2023-05-10T00:56:42.860Z,66.97
2023-05-10T00:59:09.183Z,66.33
2023-05-10T01:01:35.549Z,66.61
2023-05-10T01:04:01.885Z,67.15
2023-05-10T01:06:28.189Z,66.83
2023-05-10T01:08:54.490Z,66.44
2023-05-10T01:11:20.813Z,66.43
2023-05-10T01:13:47.149Z,66.73
2023-05-10T01:16:13.567Z,66.34
2023-05-10T01:18:39.895Z,66.45
2023-05-10T01:21:06.221Z,66.75
2023-05-10T01:23:32.560Z,66.94
2023-05-10T01:25:58.877Z,66.22
2023-05-10T01:28:25.192Z,66.59
2023-05-10T01:30:51.521Z,66.66
2023-05-10T01:33:17.821Z,66.49
2023-05-10T01:35:44.149Z,66.75
2023-05-10T01:38:10.453Z,69.03
2023-05-10T01:40:36.764Z,67.91
2023-05-10T01:43:03.087Z,68.12
2023-05-10T01:45:29.400Z,68.36
2023-05-10T01:47:55.758Z,68.42
2023-05-10T01:50:22.081Z,68.72
2023-05-10T01:52:48.393Z,67.89
2023-05-10T01:55:14.710Z,68.17
2023-05-10T01:57:41.045Z,68.26
2023-05-10T02:00:07.361Z,66.79
2023-05-10T02:02:33.713Z,67.15
2023-05-10T02:05:00.047Z,66.59
2023-05-10T02:07:26.344Z,66.36
2023-05-10T02:09:52.673Z,65.44
2023-05-10T02:12:18.996Z,65.71
2023-05-10T02:14:45.312Z,66.11
2023-05-10T02:17:11.623Z,65.96
2023-05-10T02:19:37.962Z,66.11
2023-05-10T02:22:04.314Z,65.90
2023-05-10T02:24:30.646Z,64.88
2023-05-10T02:26:56.947Z,65.35
2023-05-10T02:29:23.269Z,65.81
2023-05-10T02:31:49.614Z,65.84
2023-05-10T02:34:15.937Z,65.74
2023-05-10T02:36:42.247Z,66.11
2023-05-10T02:39:08.569Z,65.72
2023-05-10T02:41:34.969Z,64.90
2023-05-10T02:44:01.297Z,64.70
2023-05-10T02:46:27.701Z,63.77
2023-05-10T02:48:54.072Z,63.89
2023-05-10T02:51:20.382Z,65.17
2023-05-10T02:53:46.713Z,64.72
2023-05-10T02:56:13.016Z,65.39
2023-05-10T02:58:39.335Z,65.16
2023-05-10T03:01:05.752Z,65.67
2023-05-10T03:03:32.069Z,65.74
2023-05-10T03:05:58.400Z,65.98
2023-05-10T03:08:24.709Z,66.29
2023-05-10T03:10:51.014Z,65.79
2023-05-10T03:13:17.364Z,65.63
2023-05-10T03:15:43.707Z,65.30
2023-05-10T03:18:10.015Z,65.64
2023-05-10T03:20:36.348Z,65.65
2023-05-10T03:23:02.666Z,65.38
2023-05-10T03:25:28.966Z,65.19
2023-05-10T03:27:55.273Z,65.35
2023-05-10T03:30:21.593Z,65.59
2023-05-10T03:32:47.994Z,65.88
2023-05-10T03:35:14.335Z,66.16
2023-05-10T03:37:40.655Z,65.67
2023-05-10T03:40:06.977Z,66.07
2023-05-10T03:42:33.300Z,65.64
2023-05-10T03:44:59.608Z,65.67
2023-05-10T03:47:25.940Z,64.88
2023-05-10T03:49:52.261Z,65.08
2023-05-10T03:52:18.582Z,65.44
2023-05-10T03:54:44.902Z,65.62
2023-05-10T03:57:11.218Z,65.88
2023-05-10T03:59:37.597Z,66.36
2023-05-10T04:02:04.063Z,66.01
2023-05-10T04:04:30.423Z,66.17
2023-05-10T04:06:56.720Z,66.66
2023-05-10T04:09:23.023Z,66.35
2023-05-10T04:11:49.326Z,66.44
2023-05-10T04:14:15.647Z,66.55
2023-05-10T04:16:42.000Z,66.04
2023-05-10T04:19:08.413Z,66.24
2023-05-10T04:21:34.716Z,66.47
2023-05-10T04:24:01.023Z,66.06
2023-05-10T04:26:27.322Z,66.46
2023-05-10T04:28:53.649Z,66.14
2023-05-10T04:31:20.097Z,66.01
2023-05-10T04:33:46.583Z,65.95
2023-05-10T04:36:12.906Z,65.86
2023-05-10T04:38:39.230Z,66.22
2023-05-10T04:41:05.607Z,66.15
2023-05-10T04:43:31.911Z,66.36
2023-05-10T04:45:58.247Z,66.47
2023-05-10T04:48:24.583Z,67.55
2023-05-10T04:50:50.909Z,67.53
2023-05-10T04:53:17.244Z,67.72
2023-05-10T04:55:43.564Z,66.81
2023-05-10T04:58:09.872Z,67.12
2023-05-10T05:00:36.178Z,66.19
2023-05-10T05:03:02.643Z,65.92
2023-05-10T05:05:29.087Z,66.18
2023-05-10T05:07:55.388Z,65.29
2023-05-10T05:10:21.681Z,64.41
2023-05-10T05:12:48.017Z,64.17
2023-05-10T05:15:14.363Z,64.93
2023-05-10T05:17:40.720Z,64.74
2023-05-10T05:20:07.062Z,65.23
2023-05-10T05:22:33.381Z,63.12
2023-05-10T05:24:59.698Z,62.22
2023-05-10T05:27:26.021Z,60.44
2023-05-10T05:29:52.387Z,61.11
2023-05-10T05:32:18.686Z,64.43
2023-05-10T05:34:44.981Z,65.33
2023-05-10T05:37:11.296Z,65.23
2023-05-10T05:39:37.641Z,66.18
2023-05-10T05:42:03.972Z,66.46
2023-05-10T05:44:30.279Z,66.19
2023-05-10T05:46:56.582Z,65.45
2023-05-10T05:49:22.909Z,64.56
2023-05-10T05:51:49.239Z,65.19
2023-05-10T05:54:15.581Z,65.03
2023-05-10T05:56:41.915Z,64.56
2023-05-10T05:59:08.239Z,64.95
2023-05-10T06:01:34.561Z,64.85
2023-05-10T06:04:00.937Z,65.66
2023-05-10T06:06:27.311Z,65.74
2023-05-10T06:08:53.616Z,65.93
2023-05-10T06:11:19.941Z,65.27
2023-05-10T06:13:46.263Z,64.85
2023-05-10T06:16:12.581Z,65.03
2023-05-10T06:18:38.928Z,64.68
2023-05-10T06:21:05.243Z,65.32
2023-05-10T06:23:31.560Z,63.59
2023-05-10T06:25:57.892Z,64.81
2023-05-10T06:28:24.210Z,64.35
2023-05-10T06:30:50.532Z,60.95
2023-05-10T06:33:16.964Z,59.07
2023-05-10T06:35:43.303Z,57.99
2023-05-10T06:38:09.633Z,59.73
2023-05-10T06:40:35.961Z,58.72
2023-05-10T06:43:02.286Z,60.39
2023-05-10T06:45:28.612Z,59.62
2023-05-10T06:47:54.950Z,60.59
2023-05-10T06:50:21.268Z,59.71
2023-05-10T06:52:47.575Z,60.20
2023-05-10T06:55:13.935Z,60.63
2023-05-10T06:57:40.356Z,61.00
2023-05-10T07:00:06.751Z,58.64
2023-05-10T07:02:33.186Z,59.25
2023-05-10T07:05:01.728Z,59.21
2023-05-10T07:07:41.395Z,59.93
2023-05-10T07:10:07.721Z,59.41
2023-05-10T07:12:34.139Z,58.87
2023-05-10T07:15:00.564Z,59.33
2023-05-10T07:17:27.014Z,58.71
2023-05-10T07:19:53.400Z,57.18
2023-05-10T07:22:19.705Z,58.19
2023-05-10T07:24:46.019Z,57.15
2023-05-10T07:27:12.359Z,58.04
2023-05-10T07:29:38.677Z,58.75
2023-05-10T07:32:05.019Z,58.17
2023-05-10T07:34:31.362Z,57.96
2023-05-10T07:36:57.674Z,58.41
2023-05-10T07:39:27.043Z,56.55
2023-05-10T07:41:54.414Z,56.67
2023-05-10T07:44:20.741Z,57.02
2023-05-10T07:46:47.068Z,57.85
2023-05-10T07:49:13.415Z,57.44
2023-05-10T07:51:39.788Z,57.35
2023-05-10T07:54:06.109Z,57.86
2023-05-10T07:56:32.428Z,56.87
2023-05-10T07:58:58.764Z,57.04
2023-05-10T08:01:25.091Z,57.35
2023-05-10T08:03:51.447Z,57.16
2023-05-10T08:06:17.812Z,55.04
2023-05-10T08:08:44.134Z,55.16
2023-05-10T08:11:10.442Z,55.03
2023-05-10T08:13:36.752Z,53.56
2023-05-10T08:16:03.129Z,56.30
2023-05-10T08:18:29.480Z,55.00
2023-05-10T08:20:55.827Z,55.79
2023-05-10T08:23:22.218Z,54.09
2023-05-10T08:25:48.545Z,56.00
2023-05-10T08:28:14.862Z,53.03
2023-05-10T08:30:41.181Z,53.37
2023-05-10T08:33:07.497Z,52.93
2023-05-10T08:35:33.839Z,54.60
2023-05-10T08:38:00.152Z,55.77
2023-05-10T08:40:26.457Z,56.18
2023-05-10T08:42:52.801Z,54.87
2023-05-10T08:45:19.328Z,55.02
2023-05-10T08:47:45.950Z,55.58
2023-05-10T08:50:12.325Z,55.85
2023-05-10T08:52:38.642Z,54.14
2023-05-10T08:55:04.953Z,53.41
2023-05-10T08:57:31.321Z,53.65
2023-05-10T08:59:57.628Z,52.67
2023-05-10T09:02:24.055Z,53.20
2023-05-10T09:04:50.483Z,53.76
2023-05-10T09:07:16.918Z,54.08
2023-05-10T09:09:43.242Z,53.01
2023-05-10T09:12:09.564Z,52.35
2023-05-10T09:14:35.864Z,52.85
2023-05-10T09:17:02.258Z,53.14
2023-05-10T09:19:28.718Z,52.16
2023-05-10T09:21:55.040Z,51.95
2023-05-10T09:24:21.356Z,54.08
2023-05-10T09:26:47.660Z,52.47
2023-05-10T09:29:15.892Z,53.25
2023-05-10T09:31:43.597Z,52.14
2023-05-10T09:34:09.912Z,51.73
2023-05-10T09:36:36.219Z,54.01
2023-05-10T09:39:02.548Z,51.35
2023-05-10T09:41:28.861Z,51.39
2023-05-10T09:43:55.165Z,48.23
2023-05-10T09:46:21.535Z,49.26
2023-05-10T09:48:47.886Z,48.08
2023-05-10T09:51:14.229Z,49.27
2023-05-10T09:53:40.543Z,48.65
2023-05-10T09:56:06.854Z,48.56
2023-05-10T09:58:33.164Z,46.13
2023-05-10T10:00:59.497Z,46.77
2023-05-10T10:03:26.280Z,48.33
2023-05-10T10:05:53.624Z,45.37
2023-05-10T10:08:19.945Z,45.78
2023-05-10T10:10:46.861Z,46.83
2023-05-10T10:13:13.238Z,45.14
2023-05-10T10:15:39.617Z,45.96
2023-05-10T10:18:06.020Z,45.34
2023-05-10T10:20:32.362Z,46.05
2023-05-10T10:22:58.697Z,43.23
2023-05-10T10:25:25.011Z,44.68
2023-05-10T10:27:51.320Z,43.78
2023-05-10T10:30:17.645Z,42.31
2023-05-10T10:32:44.000Z,43.69
2023-05-10T10:35:10.328Z,46.44
2023-05-10T10:37:36.712Z,43.37
2023-05-10T10:40:03.014Z,40.95
2023-05-10T10:42:29.329Z,41.94
2023-05-10T10:44:55.664Z,45.13
2023-05-10T10:47:21.977Z,46.13
2023-05-10T10:49:48.322Z,46.54
2023-05-10T10:52:14.645Z,43.79
2023-05-10T10:54:40.969Z,42.24
2023-05-10T10:57:07.274Z,42.76
2023-05-10T10:59:33.572Z,42.86
2023-05-10T11:01:59.888Z,41.79
2023-05-10T11:04:26.304Z,40.04
2023-05-10T11:06:52.671Z,42.88
2023-05-10T11:09:19.007Z,40.38
2023-05-10T11:11:45.350Z,42.65
2023-05-10T11:14:11.713Z,42.93
2023-05-10T11:16:38.057Z,46.09
2023-05-10T11:19:04.512Z,44.39
2023-05-10T11:21:30.940Z,45.68
2023-05-10T11:23:57.321Z,46.71
2023-05-10T11:26:23.667Z,47.64
2023-05-10T11:28:49.971Z,47.61
2023-05-10T11:31:16.327Z,47.49
2023-05-10T11:33:42.700Z,48.54
2023-05-10T11:36:09.013Z,49.13
2023-05-10T11:38:35.328Z,48.03
2023-05-10T11:41:01.659Z,49.37
2023-05-10T11:43:27.958Z,47.74
2023-05-10T11:45:54.362Z,46.58
2023-05-10T11:48:20.694Z,47.38
2023-05-10T11:50:46.989Z,48.94
2023-05-10T11:53:13.299Z,47.70
2023-05-10T11:55:39.608Z,48.15
2023-05-10T11:58:05.911Z,48.77
2023-05-10T12:00:32.234Z,46.74
2023-05-10T12:02:58.604Z,46.68
2023-05-10T12:05:24.950Z,46.86
2023-05-10T12:07:51.259Z,47.27
2023-05-10T12:10:17.720Z,45.26
2023-05-10T12:12:44.266Z,46.35
2023-05-10T12:15:10.587Z,47.00
2023-05-10T12:17:36.961Z,46.67
2023-05-10T12:20:03.284Z,49.00
2023-05-10T12:22:29.613Z,45.93
2023-05-10T12:24:55.924Z,46.39
2023-05-10T12:27:22.228Z,46.08
2023-05-10T12:29:48.614Z,45.48
2023-05-10T12:32:14.998Z,43.83
2023-05-10T12:34:41.357Z,44.55
2023-05-10T12:37:07.724Z,43.56
2023-05-10T12:39:34.025Z,45.03
2023-05-10T12:42:00.341Z,44.73
2023-05-10T12:44:26.654Z,45.23
2023-05-10T12:46:52.989Z,44.99
2023-05-10T12:49:19.330Z,43.89
2023-05-10T12:51:45.711Z,45.51
2023-05-10T12:54:12.026Z,44.93
2023-05-10T12:56:38.349Z,44.92
2023-05-10T12:59:04.669Z,44.32
2023-05-10T13:01:30.995Z,44.16
2023-05-10T13:03:57.362Z,45.54
2023-05-10T13:06:23.704Z,44.87
2023-05-10T13:08:50.033Z,44.21
2023-05-10T13:11:16.353Z,45.08
2023-05-10T13:13:42.686Z,44.54
2023-05-10T13:16:09.015Z,44.50
2023-05-10T13:18:35.373Z,45.16
2023-05-10T13:21:01.688Z,45.19
2023-05-10T13:23:28.006Z,45.45
2023-05-10T13:25:54.320Z,44.43
2023-05-10T13:28:20.623Z,45.56
2023-05-10T13:30:46.956Z,43.59
2023-05-10T13:33:13.278Z,43.94
2023-05-10T13:35:39.616Z,44.75
2023-05-10T13:38:05.922Z,45.77
2023-05-10T13:40:32.245Z,44.67
2023-05-10T13:42:58.548Z,47.50
2023-05-10T13:45:24.865Z,46.92
2023-05-10T13:47:51.213Z,48.34
2023-05-10T13:50:17.546Z,48.36
2023-05-10T13:52:43.850Z,48.69
2023-05-10T13:55:10.176Z,48.41
2023-05-10T13:57:36.533Z,47.86
2023-05-10T14:00:02.880Z,46.98
2023-05-10T14:02:29.262Z,48.28
2023-05-10T14:04:55.636Z,48.39
2023-05-10T14:07:21.960Z,48.38
2023-05-10T14:09:48.278Z,49.23
2023-05-10T14:12:14.573Z,48.99
2023-05-10T14:14:40.891Z,49.85
2023-05-10T14:17:07.627Z,49.00
2023-05-10T14:19:35.028Z,49.33
2023-05-10T14:22:01.356Z,48.83
2023-05-10T14:24:27.799Z,49.18
2023-05-10T14:26:54.132Z,50.12
2023-05-10T14:29:20.453Z,48.74
2023-05-10T14:31:46.784Z,48.55
2023-05-10T14:34:13.169Z,49.06
2023-05-10T14:36:39.501Z,48.95
2023-05-10T14:39:05.823Z,49.57
2023-05-10T14:41:32.145Z,47.58
2023-05-10T14:43:58.461Z,48.46
2023-05-10T14:46:24.852Z,49.60
2023-05-10T14:48:51.214Z,49.62
2023-05-10T14:51:17.516Z,47.78
2023-05-10T14:53:43.866Z,48.54
2023-05-10T14:56:10.299Z,47.14
2023-05-10T14:58:36.646Z,47.45
2023-05-10T15:01:02.985Z,48.63
2023-05-10T15:03:29.954Z,49.30
2023-05-10T15:05:56.888Z,48.86
2023-05-10T15:08:23.228Z,48.26
2023-05-10T15:10:49.522Z,47.12
2023-05-10T15:13:15.835Z,47.87
2023-05-10T15:15:42.191Z,49.78
2023-05-10T15:18:08.624Z,49.03
2023-05-10T15:20:34.981Z,47.95
2023-05-10T15:23:01.306Z,48.14
2023-05-10T15:25:27.628Z,47.58
2023-05-10T15:27:53.955Z,47.87
2023-05-10T15:30:20.276Z,47.82
2023-05-10T15:32:46.635Z,47.21
2023-05-10T15:35:12.988Z,48.08
2023-05-10T15:37:39.323Z,48.03
2023-05-10T15:40:05.620Z,47.71
2023-05-10T15:42:31.924Z,48.58
2023-05-10T15:44:58.213Z,48.66
2023-05-10T15:47:24.542Z,49.29
2023-05-10T15:49:50.853Z,49.65
2023-05-10T15:52:17.146Z,49.40
2023-05-10T15:54:43.448Z,49.57
2023-05-10T15:57:09.745Z,49.81
2023-05-10T15:59:36.071Z,51.33
2023-05-10T16:02:02.400Z,50.04
2023-05-10T16:04:28.751Z,50.18
2023-05-10T16:06:55.105Z,49.52
2023-05-10T16:09:21.426Z,50.17
2023-05-10T16:11:47.738Z,49.68
2023-05-10T16:14:14.048Z,48.38
2023-05-10T16:16:40.441Z,49.12
2023-05-10T16:19:06.827Z,49.07
2023-05-10T16:21:33.160Z,48.91
2023-05-10T16:23:59.470Z,49.31
2023-05-10T16:26:25.773Z,48.66
2023-05-10T16:28:52.082Z,49.83
2023-05-10T16:31:18.466Z,49.84
2023-05-10T16:33:44.809Z,49.35
2023-05-10T16:36:11.151Z,50.16
2023-05-10T16:38:37.458Z,50.10
2023-05-10T16:41:03.757Z,49.96
2023-05-10T16:43:30.085Z,50.65
2023-05-10T16:45:56.406Z,50.13
2023-05-10T16:48:22.724Z,50.28
2023-05-10T16:50:49.061Z,49.89
2023-05-10T16:53:15.362Z,49.26
2023-05-10T16:55:41.665Z,48.48
2023-05-10T16:58:07.962Z,49.33
2023-05-10T17:00:34.288Z,49.52
2023-05-10T17:03:00.724Z,50.29
2023-05-10T17:05:27.116Z,50.25
2023-05-10T17:07:53.429Z,51.05
2023-05-10T17:10:19.772Z,50.52
2023-05-10T17:12:46.088Z,51.03
2023-05-10T17:15:12.423Z,51.34
2023-05-10T17:17:38.816Z,51.42
2023-05-10T17:20:05.153Z,51.46
2023-05-10T17:22:31.493Z,52.20
2023-05-10T17:24:57.798Z,51.79
2023-05-10T17:27:24.106Z,51.26
2023-05-10T17:29:50.437Z,51.30
2023-05-10T17:32:16.741Z,51.29
2023-05-10T17:34:43.064Z,51.10
2023-05-10T17:37:09.376Z,49.64
2023-05-10T17:39:36.153Z,48.88
2023-05-10T17:42:03.485Z,48.65
2023-05-10T17:44:29.846Z,48.74
2023-05-10T17:46:56.149Z,48.88
2023-05-10T17:49:22.468Z,47.76
2023-05-10T17:51:48.797Z,48.11
2023-05-10T17:54:15.103Z,47.72
2023-05-10T17:56:41.404Z,45.63
2023-05-10T17:59:07.715Z,46.17
2023-05-10T18:01:34.038Z,46.70
2023-05-10T18:04:00.365Z,46.79
2023-05-10T18:06:26.673Z,46.97
2023-05-10T18:08:52.976Z,47.45
2023-05-10T18:11:19.299Z,47.38
2023-05-10T18:13:45.597Z,47.71
2023-05-10T18:16:11.918Z,48.27
2023-05-10T18:18:38.268Z,48.18
2023-05-10T18:21:04.601Z,48.35
2023-05-10T18:23:30.914Z,48.60
2023-05-10T18:25:57.234Z,49.43
2023-05-10T18:28:23.557Z,49.91
2023-05-10T18:30:49.898Z,49.68
2023-05-10T18:33:17.294Z,49.48
2023-05-10T18:35:43.611Z,49.86
2023-05-10T18:38:09.951Z,49.90
2023-05-10T18:40:36.246Z,50.55
2023-05-10T18:43:02.573Z,50.41
2023-05-10T18:45:28.873Z,50.63
2023-05-10T18:47:55.209Z,50.73
2023-05-10T18:50:21.548Z,51.26
2023-05-10T18:52:47.856Z,51.31
2023-05-10T18:55:14.308Z,51.81
2023-05-10T18:57:40.748Z,52.08
2023-05-10T19:00:07.058Z,51.69
2023-05-10T19:02:33.512Z,50.44
2023-05-10T19:04:59.915Z,51.59
2023-05-10T19:07:26.366Z,51.11
2023-05-10T19:09:52.717Z,50.29
2023-05-10T19:12:19.022Z,49.59
2023-05-10T19:14:45.348Z,50.06
2023-05-10T19:17:14.294Z,51.42
2023-05-10T19:19:40.613Z,51.50
2023-05-10T19:22:06.930Z,52.32
2023-05-10T19:24:33.876Z,52.32
2023-05-10T19:27:00.672Z,51.41
2023-05-10T19:29:27.101Z,51.51
2023-05-10T19:31:53.568Z,50.99
2023-05-10T19:34:20.027Z,51.90
2023-05-10T19:36:46.342Z,50.96
2023-05-10T19:39:12.656Z,50.75
2023-05-10T19:41:39.023Z,50.84
2023-05-10T19:44:05.406Z,51.01
2023-05-10T19:46:31.761Z,51.63
2023-05-10T19:48:58.078Z,51.07
2023-05-10T19:51:24.392Z,51.19
2023-05-10T19:53:50.697Z,51.25
2023-05-10T19:56:16.994Z,50.82
2023-05-10T19:58:43.309Z,50.70
2023-05-10T20:01:09.639Z,51.28
2023-05-10T20:03:36.137Z,50.98
2023-05-10T20:06:02.524Z,50.99
2023-05-10T20:08:28.877Z,51.51
2023-05-10T20:10:55.197Z,51.85
2023-05-10T20:13:21.546Z,52.30
2023-05-10T20:15:47.853Z,51.85
2023-05-10T20:18:14.183Z,52.65
2023-05-10T20:20:40.534Z,54.06
2023-05-10T20:23:06.847Z,54.82
2023-05-10T20:25:33.144Z,55.18
2023-05-10T20:27:59.440Z,56.30
2023-05-10T20:30:25.741Z,56.69
2023-05-10T20:32:52.139Z,57.03
2023-05-10T20:35:18.449Z,56.68
2023-05-10T20:37:44.785Z,57.02
2023-05-10T20:40:11.181Z,57.07
2023-05-10T20:42:37.562Z,57.22
2023-05-10T20:45:03.888Z,57.31
2023-05-10T20:47:30.284Z,57.12
2023-05-10T20:49:56.724Z,56.58
2023-05-10T20:52:24.528Z,57.91
2023-05-10T20:54:50.986Z,57.64
2023-05-10T20:57:17.307Z,57.00
2023-05-10T20:59:43.615Z,56.71
2023-05-10T21:02:09.948Z,56.47
2023-05-10T21:04:36.313Z,54.58
2023-05-10T21:07:02.622Z,55.09
2023-05-10T21:09:28.932Z,55.35
2023-05-10T21:11:55.239Z,55.38
2023-05-10T21:14:21.575Z,54.46
2023-05-10T21:16:47.900Z,53.93
2023-05-10T21:19:14.243Z,53.65
2023-05-10T21:21:40.543Z,53.85
2023-05-10T21:24:06.863Z,54.54
2023-05-10T21:26:33.200Z,55.90
2023-05-10T21:28:59.525Z,55.03
2023-05-10T21:31:25.986Z,54.31
2023-05-10T21:33:52.385Z,54.39
2023-05-10T21:36:18.723Z,53.37
2023-05-10T21:38:45.145Z,53.20
2023-05-10T21:41:11.459Z,54.14
2023-05-10T21:43:37.773Z,54.33
2023-05-10T21:46:04.167Z,53.95
2023-05-10T21:48:30.547Z,54.20
2023-05-10T21:50:56.848Z,54.97
2023-05-10T21:53:23.151Z,56.46
2023-05-10T21:55:49.455Z,56.07
2023-05-10T21:58:15.769Z,57.13
2023-05-10T22:00:42.093Z,56.18
2023-05-10T22:03:08.590Z,56.62
2023-05-10T22:05:35.037Z,56.45
2023-05-10T22:08:01.380Z,56.53
2023-05-10T22:10:27.682Z,56.95
2023-05-10T22:12:54.013Z,58.64
2023-05-10T22:15:20.325Z,60.51
2023-05-10T22:17:46.695Z,61.22
2023-05-10T22:20:13.030Z,60.91
2023-05-10T22:22:39.353Z,60.63
2023-05-10T22:25:05.677Z,60.91
2023-05-10T22:27:31.983Z,61.00
2023-05-10T22:29:58.285Z,60.37
2023-05-10T22:32:24.655Z,60.43
2023-05-10T22:34:51.007Z,60.97
2023-05-10T22:37:17.308Z,62.13
2023-05-10T22:39:43.602Z,61.71
2023-05-10T22:42:09.902Z,61.63
2023-05-10T22:44:36.231Z,62.03
2023-05-10T22:47:02.547Z,61.79
2023-05-10T22:49:28.860Z,61.61
2023-05-10T22:51:55.189Z,62.14
2023-05-10T22:54:21.517Z,61.13
2023-05-10T22:56:47.825Z,61.40
2023-05-10T22:59:14.129Z,60.68
2023-05-10T23:01:40.486Z,61.08
2023-05-10T23:04:06.895Z,61.91
2023-05-10T23:06:33.249Z,62.95
2023-05-10T23:08:59.571Z,63.48
2023-05-10T23:11:25.883Z,62.87
2023-05-10T23:13:52.176Z,62.05
2023-05-10T23:16:18.644Z,61.39
2023-05-10T23:18:45.139Z,62.42
2023-05-10T23:21:11.482Z,62.55
2023-05-10T23:23:37.861Z,62.38
2023-05-10T23:26:04.197Z,62.36
2023-05-10T23:28:30.508Z,62.71
2023-05-10T23:30:56.807Z,62.37
2023-05-10T23:33:23.123Z,62.00
2023-05-10T23:35:49.434Z,62.15
2023-05-10T23:38:15.744Z,63.94
2023-05-10T23:40:42.061Z,64.25
2023-05-10T23:43:08.373Z,64.52
2023-05-10T23:45:34.741Z,63.47
2023-05-10T23:48:01.088Z,63.34
2023-05-10T23:50:27.465Z,63.12
2023-05-10T23:52:53.757Z,62.09
2023-05-10T23:55:20.081Z,62.88
2023-05-10T23:57:46.381Z,62.56
